Time;durP1;ratioP1;P1;durP2;ratioP2;P2;SDS_P1;SDS_P2;PMS_P1;PMS_P2;Temp;Humidity;BMP_temperature;BMP_pressure;BME280_temperature;BME280_humidity;BME280_pressure;Samples;Min_cycle;Max_cycle;Signal;HPM_P1;HPM_P2
2023/11/15 00:00:25;;;;;;;11.60;9.30;;;10.60;99.90;;;;;;4961115;29;20550;-81
2023/11/15 00:02:52;;;;;;;15.80;9.13;;;10.60;99.90;;;;;;4962408;29;20452;-84
2023/11/15 00:05:20;;;;;;;16.23;8.97;;;10.60;99.90;;;;;;4959310;29;21133;-84
2023/11/15 00:07:47;;;;;;;14.57;8.70;;;10.60;99.90;;;;;;4956689;29;20458;-84
2023/11/15 00:10:14;;;;;;;17.43;7.90;;;10.50;99.90;;;;;;4963095;29;20455;-81
2023/11/15 00:12:42;;;;;;;15.70;7.43;;;10.50;99.90;;;;;;4965876;29;20443;-83
2023/11/15 00:15:09;;;;;;;14.93;8.17;;;10.50;99.90;;;;;;4962253;29;21046;-82
2023/11/15 00:17:36;;;;;;;15.00;7.27;;;10.50;99.90;;;;;;4963201;29;20487;-83
2023/11/15 00:20:05;;;;;;;9.00;6.47;;;10.60;99.90;;;;;;4962251;29;20483;-83
2023/11/15 00:22:33;;;;;;;10.83;5.53;;;10.60;99.90;;;;;;4962336;29;20456;-82
2023/11/15 00:25:00;;;;;;;9.57;6.00;;;10.60;99.90;;;;;;4959002;28;20540;-82
2023/11/15 00:27:27;;;;;;;10.33;6.30;;;10.60;99.90;;;;;;4958963;29;20498;-83
2023/11/15 00:29:54;;;;;;;13.30;5.30;;;10.60;99.90;;;;;;4959035;29;20462;-84
2023/11/15 00:32:21;;;;;;;10.37;4.80;;;10.70;99.90;;;;;;4961927;29;20452;-83
2023/11/15 00:34:48;;;;;;;6.30;5.00;;;10.60;99.90;;;;;;4961033;29;20459;-82
2023/11/15 00:37:15;;;;;;;12.20;5.93;;;10.60;99.90;;;;;;4962246;29;20539;-82
2023/11/15 00:39:43;;;;;;;9.70;5.27;;;10.60;99.90;;;;;;4958388;29;20550;-83
2023/11/15 00:42:10;;;;;;;10.87;5.27;;;10.60;99.90;;;;;;4958794;29;20476;-84
2023/11/15 00:44:38;;;;;;;11.50;6.10;;;10.50;99.90;;;;;;4959917;29;20464;-83
2023/11/15 00:47:05;;;;;;;7.20;4.30;;;10.50;99.90;;;;;;4960263;29;20496;-84
2023/11/15 00:49:32;;;;;;;7.50;4.20;;;10.50;99.90;;;;;;4942594;29;20547;-84
2023/11/15 00:51:59;;;;;;;10.20;3.93;;;10.60;99.90;;;;;;4942355;29;20547;-83
2023/11/15 00:54:26;;;;;;;14.43;5.27;;;10.60;99.90;;;;;;4943264;29;20466;-82
2023/11/15 00:56:55;;;;;;;11.50;4.57;;;10.60;99.90;;;;;;4958627;29;20542;-84
2023/11/15 00:59:26;;;;;;;9.77;4.47;;;10.50;99.90;;;;;;4961325;29;20467;-83
2023/11/15 01:01:57;;;;;;;5.23;3.40;;;10.50;99.90;;;;;;4948064;29;20471;-84
2023/11/15 01:04:25;;;;;;;6.70;4.17;;;10.50;99.90;;;;;;4958992;29;21027;-84
2023/11/15 01:06:52;;;;;;;8.43;3.67;;;10.50;99.90;;;;;;4960184;29;20502;-83
2023/11/15 01:09:20;;;;;;;6.07;3.80;;;10.50;99.90;;;;;;4959644;29;20881;-84
2023/11/15 01:11:49;;;;;;;5.70;2.90;;;10.50;99.90;;;;;;4958645;29;20846;-82
2023/11/15 01:14:17;;;;;;;8.20;3.63;;;10.50;99.90;;;;;;4959510;29;20913;-83
2023/11/15 01:16:44;;;;;;;6.53;2.80;;;10.50;99.90;;;;;;4960808;29;20506;-83
2023/11/15 01:19:10;;;;;;;8.10;3.17;;;10.40;99.90;;;;;;4960660;29;20491;-83
2023/11/15 01:21:37;;;;;;;6.90;2.70;;;10.40;99.90;;;;;;4960506;29;20519;-84
2023/11/15 01:24:05;;;;;;;7.30;2.90;;;10.40;99.90;;;;;;4957739;28;21201;-84
2023/11/15 01:26:32;;;;;;;6.17;2.60;;;10.40;99.90;;;;;;4959046;29;20522;-84
2023/11/15 01:28:59;;;;;;;5.10;2.50;;;10.50;99.90;;;;;;4959342;29;20546;-84
2023/11/15 01:31:27;;;;;;;9.83;2.63;;;10.50;99.90;;;;;;4959609;29;20466;-83
2023/11/15 01:33:54;;;;;;;6.70;2.67;;;10.50;99.90;;;;;;4958614;29;20455;-84
2023/11/15 01:36:20;;;;;;;13.30;2.90;;;10.50;99.90;;;;;;4961500;28;20982;-84
2023/11/15 01:38:47;;;;;;;5.47;2.73;;;10.50;99.90;;;;;;4960055;29;20832;-83
2023/11/15 01:41:16;;;;;;;4.97;3.40;;;10.50;99.90;;;;;;4960087;29;20482;-82
2023/11/15 01:43:44;;;;;;;6.23;3.17;;;10.50;99.90;;;;;;4959857;29;20459;-84
2023/11/15 01:46:14;;;;;;;7.07;4.00;;;10.60;99.90;;;;;;4958970;29;20496;-83
2023/11/15 01:48:42;;;;;;;9.00;3.83;;;10.60;99.90;;;;;;4951863;29;20484;-83
2023/11/15 01:51:10;;;;;;;12.10;4.70;;;10.60;99.90;;;;;;4959888;29;20459;-84
2023/11/15 01:53:39;;;;;;;7.97;4.20;;;10.60;99.90;;;;;;4952525;29;20547;-83
2023/11/15 01:56:08;;;;;;;12.10;5.47;;;10.60;99.90;;;;;;4959345;29;20482;-83
2023/11/15 01:58:36;;;;;;;11.20;5.00;;;10.60;99.90;;;;;;4959870;29;21118;-84
2023/11/15 02:01:05;;;;;;;12.03;4.70;;;10.60;99.90;;;;;;4959353;29;20463;-84
2023/11/15 02:03:31;;;;;;;12.30;8.20;;;10.70;99.90;;;;;;4958779;29;20832;-84
2023/11/15 02:06:00;;;;;;;14.70;5.87;;;10.60;99.90;;;;;;4960200;29;20504;-85
2023/11/15 02:08:27;;;;;;;8.10;4.60;;;10.70;99.90;;;;;;4951977;29;20624;-84
2023/11/15 02:10:54;;;;;;;12.83;6.33;;;10.70;99.90;;;;;;4950287;29;20471;-83
2023/11/15 02:13:23;;;;;;;13.30;6.53;;;10.70;99.90;;;;;;4956575;29;20495;-83
2023/11/15 02:15:52;;;;;;;14.13;7.30;;;10.70;99.90;;;;;;4957536;29;20999;-84
2023/11/15 02:18:19;;;;;;;13.90;7.60;;;10.70;99.90;;;;;;4957898;29;20464;-84
2023/11/15 02:20:47;;;;;;;11.73;7.33;;;10.70;99.90;;;;;;4956636;29;20468;-84
2023/11/15 02:23:19;;;;;;;14.87;7.33;;;10.70;99.90;;;;;;4956333;29;20474;-83
2023/11/15 02:25:47;;;;;;;21.40;8.63;;;10.70;99.90;;;;;;4951659;29;20473;-83
2023/11/15 02:28:14;;;;;;;10.57;7.80;;;10.80;99.90;;;;;;4959015;29;20923;-82
2023/11/15 02:30:41;;;;;;;17.47;9.10;;;10.80;99.90;;;;;;4972677;29;20463;-83
2023/11/15 02:33:08;;;;;;;14.47;8.80;;;10.80;99.90;;;;;;4972695;29;20498;-83
2023/11/15 02:35:34;;;;;;;17.13;9.40;;;10.80;99.90;;;;;;4967588;29;21868;-82
2023/11/15 02:38:01;;;;;;;13.23;8.67;;;10.80;99.90;;;;;;4973956;29;20483;-81
2023/11/15 02:40:28;;;;;;;17.37;9.17;;;10.80;99.90;;;;;;4972451;29;20456;-82
2023/11/15 02:42:56;;;;;;;18.57;9.53;;;10.80;99.90;;;;;;4973833;29;20522;-83
2023/11/15 02:45:23;;;;;;;17.43;9.13;;;10.80;99.90;;;;;;4962651;29;20511;-84
2023/11/15 02:47:50;;;;;;;18.40;9.83;;;10.80;99.90;;;;;;4957144;28;20490;-83
2023/11/15 02:50:17;;;;;;;15.60;8.23;;;10.80;99.90;;;;;;4962698;29;20457;-84
2023/11/15 02:52:45;;;;;;;15.43;9.33;;;10.90;99.90;;;;;;4959407;29;20553;-84
2023/11/15 02:55:12;;;;;;;16.40;9.70;;;10.80;99.90;;;;;;4951404;29;20495;-84
2023/11/15 02:57:39;;;;;;;29.10;10.80;;;10.80;99.90;;;;;;4962502;29;20452;-82
2023/11/15 03:00:09;;;;;;;16.67;9.03;;;10.80;99.90;;;;;;4960893;29;20462;-84
2023/11/15 03:02:38;;;;;;;15.90;7.33;;;10.80;99.90;;;;;;4963106;29;20464;-82
2023/11/15 03:05:06;;;;;;;14.43;9.10;;;10.90;99.90;;;;;;4963000;29;20480;-84
2023/11/15 03:07:33;;;;;;;18.30;11.43;;;10.80;99.90;;;;;;4962027;29;20526;-83
2023/11/15 03:09:59;;;;;;;19.97;9.13;;;10.80;99.90;;;;;;4961816;29;20466;-83
2023/11/15 03:12:26;;;;;;;16.70;9.07;;;10.80;99.90;;;;;;4956920;29;20464;-83
2023/11/15 03:14:53;;;;;;;15.17;9.50;;;10.80;99.90;;;;;;4962518;29;20490;-83
2023/11/15 03:17:21;;;;;;;12.80;8.93;;;10.80;99.90;;;;;;4962337;29;20488;-83
2023/11/15 03:19:48;;;;;;;17.20;9.80;;;10.80;99.90;;;;;;4961624;29;20510;-82
2023/11/15 03:22:15;;;;;;;25.57;10.40;;;10.80;99.90;;;;;;4962497;29;20488;-82
2023/11/15 03:24:45;;;;;;;18.93;10.13;;;10.80;99.90;;;;;;4962549;29;20464;-80
2023/11/15 03:27:12;;;;;;;18.33;8.63;;;10.80;99.90;;;;;;4954092;29;20569;-82
2023/11/15 03:29:39;;;;;;;20.70;10.70;;;10.80;99.90;;;;;;4961481;29;20459;-82
2023/11/15 03:32:06;;;;;;;16.00;9.67;;;10.80;99.90;;;;;;4962068;29;20479;-82
2023/11/15 03:34:35;;;;;;;16.90;8.57;;;10.80;99.90;;;;;;4961719;29;20465;-82
2023/11/15 03:37:04;;;;;;;19.83;9.77;;;10.90;99.90;;;;;;4962616;29;20997;-82
2023/11/15 03:39:34;;;;;;;9.27;7.33;;;10.80;99.90;;;;;;4960463;29;20469;-83
2023/11/15 03:42:02;;;;;;;14.30;6.40;;;10.70;99.90;;;;;;4953503;29;20825;-81
2023/11/15 03:44:29;;;;;;;12.73;5.60;;;10.70;99.90;;;;;;4960537;29;20459;-84
2023/11/15 03:46:55;;;;;;;10.57;3.33;;;10.70;99.90;;;;;;4961779;29;20884;-83
2023/11/15 03:49:22;;;;;;;7.20;2.40;;;10.60;99.90;;;;;;4961268;29;20844;-83
2023/11/15 03:51:50;;;;;;;6.87;2.20;;;10.60;99.90;;;;;;4962178;29;20464;-82
2023/11/15 03:54:17;;;;;;;4.80;1.70;;;10.60;99.90;;;;;;4962134;29;20463;-83
2023/11/15 03:56:44;;;;;;;3.90;1.53;;;10.60;99.90;;;;;;4955380;29;20490;-83
2023/11/15 03:59:11;;;;;;;2.40;1.40;;;10.60;99.90;;;;;;4962107;29;20483;-84
2023/11/15 04:01:39;;;;;;;3.80;1.40;;;10.50;99.90;;;;;;4961242;28;20463;-82
2023/11/15 04:04:06;;;;;;;9.40;4.27;;;10.40;99.90;;;;;;4962917;29;20460;-84
2023/11/15 04:06:33;;;;;;;9.97;5.90;;;10.30;99.90;;;;;;4961394;29;20484;-84
2023/11/15 04:09:01;;;;;;;15.13;7.40;;;10.40;99.90;;;;;;4953970;29;20467;-82
2023/11/15 04:11:35;;;;;;;16.80;7.30;;;10.50;99.90;;;;;;4962227;29;20477;-83
2023/11/15 04:14:02;;;;;;;13.90;7.00;;;10.60;99.90;;;;;;4959152;29;20487;-84
2023/11/15 04:16:28;;;;;;;21.27;7.27;;;10.50;99.90;;;;;;4958518;29;20479;-82
2023/11/15 04:18:58;;;;;;;13.57;8.17;;;10.50;99.90;;;;;;4961292;29;20920;-83
2023/11/15 04:21:25;;;;;;;14.47;8.53;;;10.60;99.90;;;;;;4961421;29;20488;-84
2023/11/15 04:23:53;;;;;;;16.53;7.97;;;10.60;99.90;;;;;;4956604;29;20464;-85
2023/11/15 04:26:22;;;;;;;15.23;8.23;;;10.60;99.90;;;;;;4958106;29;20546;-83
2023/11/15 04:28:48;;;;;;;19.93;10.00;;;10.60;99.90;;;;;;4961158;29;20456;-84
2023/11/15 04:31:15;;;;;;;19.93;8.20;;;10.60;99.90;;;;;;4963494;29;20977;-83
2023/11/15 04:33:42;;;;;;;27.63;9.40;;;10.70;99.90;;;;;;4975543;29;20508;-83
2023/11/15 04:36:10;;;;;;;17.60;8.87;;;10.70;99.90;;;;;;4970689;29;20546;-84
2023/11/15 04:38:37;;;;;;;19.90;8.70;;;10.70;99.90;;;;;;4962803;29;20470;-82
2023/11/15 04:41:05;;;;;;;16.83;9.70;;;10.70;99.90;;;;;;4959812;29;20456;-82
2023/11/15 04:43:33;;;;;;;20.90;9.00;;;10.70;99.90;;;;;;4951258;29;20949;-82
2023/11/15 04:46:00;;;;;;;13.57;9.63;;;10.70;99.90;;;;;;4954788;29;20491;-83
2023/11/15 04:48:27;;;;;;;18.57;9.17;;;10.60;99.90;;;;;;4957771;29;20492;-83
2023/11/15 04:50:56;;;;;;;22.63;10.43;;;10.60;99.90;;;;;;4960819;29;20486;-83
2023/11/15 04:53:24;;;;;;;19.73;9.07;;;10.60;99.90;;;;;;4959912;29;20887;-83
2023/11/15 04:55:51;;;;;;;15.07;9.57;;;10.60;99.90;;;;;;4960389;29;20483;-82
2023/11/15 04:58:17;;;;;;;15.00;8.80;;;10.60;99.90;;;;;;4960401;29;20481;-83
2023/11/15 05:00:46;;;;;;;15.17;8.00;;;10.60;99.90;;;;;;4961200;29;20464;-82
2023/11/15 05:03:12;;;;;;;21.47;9.90;;;10.60;99.90;;;;;;4956378;29;20470;-83
2023/11/15 05:05:42;;;;;;;16.73;9.17;;;10.60;99.90;;;;;;4960972;29;20487;-82
2023/11/15 05:08:09;;;;;;;19.17;9.70;;;10.60;99.90;;;;;;4954496;29;20941;-83
2023/11/15 05:10:36;;;;;;;16.27;8.20;;;10.60;99.90;;;;;;4946821;29;20814;-83
2023/11/15 05:13:04;;;;;;;16.13;9.07;;;10.60;99.90;;;;;;4959907;28;20459;-81
2023/11/15 05:15:31;;;;;;;12.77;7.53;;;10.50;99.90;;;;;;4960082;29;20482;-84
2023/11/15 05:17:59;;;;;;;21.40;10.30;;;10.60;99.90;;;;;;4958154;29;20550;-83
2023/11/15 05:20:26;;;;;;;16.43;9.50;;;10.50;99.90;;;;;;4941869;29;20464;-83
2023/11/15 05:22:54;;;;;;;15.10;9.10;;;10.60;99.90;;;;;;4952522;29;20986;-82
2023/11/15 05:25:22;;;;;;;18.87;9.53;;;10.60;99.90;;;;;;4954687;29;20621;-83
2023/11/15 05:27:49;;;;;;;22.50;9.70;;;10.60;99.90;;;;;;4956676;29;20551;-80
2023/11/15 05:30:16;;;;;;;24.43;10.00;;;10.60;99.90;;;;;;4952378;29;20465;-80
2023/11/15 05:32:43;;;;;;;18.57;10.37;;;10.60;99.90;;;;;;4957699;29;20840;-82
2023/11/15 05:35:11;;;;;;;22.23;12.20;;;10.60;99.90;;;;;;4955523;29;20511;-81
2023/11/15 05:37:38;;;;;;;17.77;8.97;;;10.60;99.90;;;;;;4960208;29;20456;-79
2023/11/15 05:40:07;;;;;;;19.90;10.43;;;10.60;99.90;;;;;;4960832;29;20463;-82
2023/11/15 05:42:34;;;;;;;21.20;10.00;;;10.60;99.90;;;;;;4960741;29;20489;-81
2023/11/15 05:45:01;;;;;;;14.33;8.43;;;10.60;99.90;;;;;;4960619;29;20482;-80
2023/11/15 05:47:28;;;;;;;16.00;9.37;;;10.60;99.90;;;;;;4952384;29;20496;-81
2023/11/15 05:49:54;;;;;;;13.87;8.10;;;10.60;99.90;;;;;;4953949;29;20457;-81
2023/11/15 05:52:23;;;;;;;20.70;8.77;;;10.50;99.90;;;;;;4940711;29;20946;-81
2023/11/15 05:54:50;;;;;;;17.93;9.77;;;10.60;99.90;;;;;;4948745;29;20466;-82
2023/11/15 05:57:17;;;;;;;24.53;9.37;;;10.60;99.90;;;;;;4946087;29;20463;-84
2023/11/15 05:59:43;;;;;;;15.27;9.17;;;10.60;99.90;;;;;;4956940;29;20881;-84
2023/11/15 06:02:11;;;;;;;19.40;9.40;;;10.60;99.90;;;;;;4955689;29;20470;-84
2023/11/15 06:04:38;;;;;;;15.43;9.80;;;10.60;99.90;;;;;;4955274;29;20468;-80
2023/11/15 06:07:05;;;;;;;16.33;10.00;;;10.70;99.90;;;;;;4950795;29;20981;-83
2023/11/15 06:09:33;;;;;;;15.40;8.70;;;10.70;99.90;;;;;;4955887;29;20495;-83
2023/11/15 06:12:00;;;;;;;25.67;9.30;;;10.70;99.90;;;;;;4943984;29;20461;-84
2023/11/15 06:14:27;;;;;;;18.57;9.70;;;10.70;99.90;;;;;;4955031;29;20968;-84
2023/11/15 06:16:54;;;;;;;13.40;8.37;;;10.70;99.90;;;;;;4955961;29;20495;-84
2023/11/15 06:19:23;;;;;;;21.83;9.50;;;10.60;99.90;;;;;;4955932;29;20455;-84
2023/11/15 06:21:49;;;;;;;14.30;7.50;;;10.60;99.90;;;;;;4947102;29;20960;-82
2023/11/15 06:24:16;;;;;;;13.37;7.97;;;10.50;99.90;;;;;;4955074;28;20470;-84
2023/11/15 06:26:43;;;;;;;15.20;9.90;;;10.60;99.90;;;;;;4958109;29;20514;-84
2023/11/15 06:29:11;;;;;;;15.97;7.90;;;10.60;99.90;;;;;;4958497;29;20491;-84
2023/11/15 06:31:37;;;;;;;13.27;7.40;;;10.50;99.90;;;;;;4956520;29;20474;-83
2023/11/15 06:34:05;;;;;;;12.27;8.70;;;10.50;99.90;;;;;;4959303;29;20470;-82
2023/11/15 06:36:36;;;;;;;9.53;5.80;;;10.50;99.90;;;;;;4955872;29;20492;-82
2023/11/15 06:39:05;;;;;;;14.77;7.30;;;10.60;99.90;;;;;;4961083;29;20451;-82
2023/11/15 06:41:34;;;;;;;19.97;6.23;;;10.50;99.90;;;;;;4948364;29;20475;-81
2023/11/15 06:44:03;;;;;;;21.47;6.50;;;10.60;99.90;;;;;;4957946;29;20464;-81
2023/11/15 06:46:30;;;;;;;11.67;6.50;;;10.60;99.90;;;;;;4961516;29;20497;-81
2023/11/15 06:48:57;;;;;;;10.07;7.13;;;10.50;99.90;;;;;;4960188;29;20494;-82
2023/11/15 06:51:23;;;;;;;14.80;6.13;;;10.50;99.90;;;;;;4960231;29;20579;-81
2023/11/15 06:53:53;;;;;;;16.80;7.63;;;10.50;99.90;;;;;;4950959;29;20565;-81
2023/11/15 06:56:19;;;;;;;16.70;8.10;;;10.50;99.90;;;;;;4951125;29;20484;-82
2023/11/15 06:58:46;;;;;;;14.57;6.57;;;10.40;99.90;;;;;;4950211;29;20449;-81
2023/11/15 07:01:14;;;;;;;11.30;6.07;;;10.40;99.90;;;;;;4955076;29;20841;-81
2023/11/15 07:03:44;;;;;;;14.20;6.67;;;10.40;99.90;;;;;;4956591;29;20470;-82
2023/11/15 07:06:12;;;;;;;18.07;6.80;;;10.40;99.90;;;;;;4954531;29;21022;-82
2023/11/15 07:08:40;;;;;;;10.37;6.50;;;10.40;99.90;;;;;;4955237;29;20499;-82
2023/11/15 07:11:08;;;;;;;9.50;5.30;;;10.40;99.90;;;;;;4956248;29;20463;-82
2023/11/15 07:13:34;;;;;;;7.53;5.80;;;10.40;99.90;;;;;;4957614;29;20459;-82
2023/11/15 07:16:02;;;;;;;11.60;5.47;;;10.40;99.90;;;;;;4959221;29;20554;-80
2023/11/15 07:18:31;;;;;;;15.03;7.17;;;10.50;99.90;;;;;;4955868;29;20471;-82
2023/11/15 07:20:58;;;;;;;9.47;5.40;;;10.50;99.90;;;;;;4957948;29;20839;-82
2023/11/15 07:23:26;;;;;;;11.40;6.17;;;10.60;99.90;;;;;;4957938;29;20495;-80
2023/11/15 07:25:54;;;;;;;11.37;6.37;;;10.50;99.90;;;;;;4957075;29;21075;-83
2023/11/15 07:28:20;;;;;;;14.37;5.30;;;10.60;99.90;;;;;;4956622;29;20484;-82
2023/11/15 07:30:50;;;;;;;8.77;5.17;;;10.60;99.90;;;;;;4956638;28;20540;-83
2023/11/15 07:33:19;;;;;;;12.70;6.00;;;10.60;99.90;;;;;;4959453;28;20538;-82
2023/11/15 07:35:48;;;;;;;11.10;5.20;;;10.60;99.90;;;;;;4958244;28;20473;-81
2023/11/15 07:38:15;;;;;;;14.47;6.53;;;10.60;99.90;;;;;;4957105;29;20448;-81
2023/11/15 07:40:42;;;;;;;10.03;6.23;;;10.60;99.90;;;;;;4955600;29;20466;-82
2023/11/15 07:43:10;;;;;;;16.03;7.00;;;10.60;99.90;;;;;;4958554;29;21252;-82
2023/11/15 07:45:38;;;;;;;11.97;6.50;;;10.60;99.90;;;;;;4957032;29;20480;-82
2023/11/15 07:48:10;;;;;;;11.00;6.50;;;10.70;99.90;;;;;;4955435;29;20487;-81
2023/11/15 07:50:37;;;;;;;18.87;6.27;;;10.70;99.90;;;;;;4956928;29;20472;-81
2023/11/15 07:53:05;;;;;;;10.57;5.70;;;10.70;99.90;;;;;;4957208;29;20462;-81
2023/11/15 07:55:35;;;;;;;16.33;6.23;;;10.70;99.90;;;;;;4956440;29;20481;-81
2023/11/15 07:58:02;;;;;;;14.00;6.43;;;10.70;99.90;;;;;;4956968;29;20543;-81
2023/11/15 08:00:29;;;;;;;15.53;6.27;;;10.70;99.90;;;;;;4956379;29;20483;-82
2023/11/15 08:02:56;;;;;;;18.50;7.17;;;10.70;99.90;;;;;;4957900;29;20520;-82
2023/11/15 08:05:23;;;;;;;10.17;5.80;;;10.70;99.90;;;;;;4958622;29;20575;-82
2023/11/15 08:07:51;;;;;;;14.90;7.23;;;10.70;99.90;;;;;;4954654;29;20489;-80
2023/11/15 08:10:19;;;;;;;12.33;6.43;;;10.70;99.90;;;;;;4962312;29;20949;-81
2023/11/15 08:12:49;;;;;;;16.87;6.30;;;10.80;99.90;;;;;;4956231;29;21141;-81
2023/11/15 08:15:16;;;;;;;14.77;6.00;;;10.80;99.90;;;;;;4958018;29;20479;-81
2023/11/15 08:17:46;;;;;;;9.27;6.00;;;10.80;99.90;;;;;;4955862;29;20919;-82
2023/11/15 08:20:14;;;;;;;13.83;5.70;;;10.90;99.90;;;;;;4953997;29;20460;-81
2023/11/15 08:22:41;;;;;;;12.07;6.57;;;10.90;99.90;;;;;;4951771;29;20464;-80
2023/11/15 08:25:10;;;;;;;15.10;6.30;;;11.00;99.90;;;;;;4959951;29;20480;-81
2023/11/15 08:27:40;;;;;;;14.10;6.00;;;11.00;99.90;;;;;;4961280;29;20531;-77
2023/11/15 08:30:11;;;;;;;12.43;5.20;;;11.00;99.90;;;;;;4959904;29;20542;-82
2023/11/15 08:32:38;;;;;;;14.47;7.20;;;11.00;99.90;;;;;;4960386;29;20459;-80
2023/11/15 08:35:06;;;;;;;10.03;5.53;;;11.00;99.90;;;;;;4960271;29;20500;-82
2023/11/15 08:37:33;;;;;;;12.57;5.77;;;11.00;99.90;;;;;;4960612;29;20466;-81
2023/11/15 08:40:00;;;;;;;14.97;6.60;;;11.00;99.90;;;;;;4960257;29;20456;-79
2023/11/15 08:42:27;;;;;;;15.13;5.20;;;11.10;99.90;;;;;;4960853;29;20977;-81
2023/11/15 08:44:55;;;;;;;12.03;4.67;;;11.10;99.90;;;;;;4970342;29;20516;-81
2023/11/15 08:47:23;;;;;;;11.20;5.57;;;11.10;99.90;;;;;;4959787;28;20578;-81
2023/11/15 08:49:50;;;;;;;9.17;5.00;;;11.20;99.90;;;;;;4959867;29;20498;-81
2023/11/15 08:52:19;;;;;;;19.67;6.07;;;11.30;99.90;;;;;;4960302;29;20496;-81
2023/11/15 08:54:46;;;;;;;12.70;5.23;;;11.40;99.90;;;;;;4960684;29;20543;-81
2023/11/15 08:57:15;;;;;;;10.30;6.47;;;11.50;99.90;;;;;;4960331;29;21016;-80
2023/11/15 08:59:42;;;;;;;9.70;4.70;;;11.60;99.90;;;;;;4959979;29;21113;-81
2023/11/15 09:02:11;;;;;;;12.60;5.37;;;11.60;99.90;;;;;;4960985;29;20462;-81
2023/11/15 09:04:38;;;;;;;10.43;4.60;;;11.80;99.90;;;;;;4960829;29;20966;-80
2023/11/15 09:07:05;;;;;;;12.90;6.33;;;11.80;99.90;;;;;;4961373;29;20452;-81
2023/11/15 09:09:39;;;;;;;11.63;4.97;;;11.80;99.90;;;;;;4960738;29;20506;-81
2023/11/15 09:12:07;;;;;;;11.63;5.00;;;11.80;99.90;;;;;;4967109;29;20456;-81
2023/11/15 09:14:34;;;;;;;16.47;5.30;;;11.90;99.90;;;;;;4968540;29;20459;-80
2023/11/15 09:17:02;;;;;;;8.80;5.03;;;11.80;99.90;;;;;;4967422;29;20480;-80
2023/11/15 09:19:32;;;;;;;12.73;5.80;;;12.00;99.90;;;;;;4967265;29;20484;-80
2023/11/15 09:22:01;;;;;;;12.20;4.40;;;12.20;99.90;;;;;;4967575;29;20971;-79
2023/11/15 09:24:29;;;;;;;11.90;4.93;;;12.30;99.90;;;;;;4961623;29;20535;-81
2023/11/15 09:26:56;;;;;;;12.47;5.00;;;12.40;99.90;;;;;;4960347;29;20488;-81
2023/11/15 09:29:23;;;;;;;8.73;3.80;;;12.50;99.90;;;;;;4959652;29;21027;-81
2023/11/15 09:31:52;;;;;;;9.30;4.17;;;12.70;99.90;;;;;;4960224;29;20463;-81
2023/11/15 09:34:19;;;;;;;12.40;4.10;;;12.70;99.90;;;;;;4960321;29;20513;-81
2023/11/15 09:36:48;;;;;;;16.20;5.13;;;12.70;99.90;;;;;;4960442;29;20482;-81
2023/11/15 09:39:16;;;;;;;14.30;4.70;;;12.60;99.90;;;;;;4959974;29;20455;-79
2023/11/15 09:41:48;;;;;;;10.03;4.60;;;12.50;99.90;;;;;;4960711;29;20457;-81
2023/11/15 09:44:19;;;;;;;13.43;4.53;;;12.40;99.90;;;;;;4960570;29;20515;-80
2023/11/15 09:46:47;;;;;;;11.47;6.50;;;12.30;99.90;;;;;;4960118;29;20552;-80
2023/11/15 09:49:15;;;;;;;10.47;4.93;;;12.20;99.90;;;;;;4959367;29;20532;-79
2023/11/15 09:51:44;;;;;;;12.47;4.70;;;12.20;99.90;;;;;;4959401;29;20453;-81
2023/11/15 09:54:13;;;;;;;9.13;4.60;;;12.10;99.90;;;;;;4959438;29;20968;-80
2023/11/15 09:56:40;;;;;;;10.77;4.83;;;12.10;99.90;;;;;;4959763;29;20597;-80
2023/11/15 09:59:08;;;;;;;6.77;3.60;;;11.90;99.90;;;;;;4959504;28;20456;-81
2023/11/15 10:01:35;;;;;;;7.57;2.70;;;11.80;99.90;;;;;;4959453;29;20462;-81
2023/11/15 10:04:03;;;;;;;4.90;2.63;;;11.50;99.90;;;;;;4959296;29;20456;-81
2023/11/15 10:06:40;;;;;;;4.97;2.50;;;11.40;99.90;;;;;;4960088;29;20542;-81
2023/11/15 10:09:07;;;;;;;9.93;3.70;;;11.40;99.90;;;;;;4945246;29;20509;-81
2023/11/15 10:11:37;;;;;;;6.70;3.37;;;11.20;99.90;;;;;;4943819;29;20507;-82
2023/11/15 10:14:15;;;;;;;6.40;3.57;;;11.20;99.90;;;;;;4960369;29;20453;-81
2023/11/15 10:16:48;;;;;;;6.50;4.47;;;11.20;99.90;;;;;;4949927;29;20869;-80
2023/11/15 10:19:26;;;;;;;8.60;3.90;;;11.40;99.90;;;;;;4956458;29;20484;-81
2023/11/15 10:21:57;;;;;;;12.50;4.80;;;11.30;99.90;;;;;;4956538;29;20969;-80
2023/11/15 10:24:25;;;;;;;10.83;4.60;;;11.50;99.90;;;;;;4956613;29;20540;-82
2023/11/15 10:26:53;;;;;;;14.40;5.77;;;11.80;99.90;;;;;;4943496;29;20480;-81
2023/11/15 10:29:21;;;;;;;14.17;5.70;;;11.80;99.90;;;;;;4937054;29;20564;-80
2023/11/15 10:31:51;;;;;;;9.13;6.03;;;11.70;99.90;;;;;;4937092;29;20464;-82
2023/11/15 10:34:19;;;;;;;10.03;6.33;;;11.70;99.90;;;;;;4937643;29;20492;-81
2023/11/15 10:37:02;;;;;;;12.93;5.90;;;11.70;99.90;;;;;;4937393;29;20488;-82
2023/11/15 10:39:31;;;;;;;23.73;6.50;;;11.90;99.90;;;;;;4920709;29;20465;-81
2023/11/15 10:42:00;;;;;;;18.50;6.70;;;11.90;99.90;;;;;;4937881;29;20489;-82
2023/11/15 10:44:28;;;;;;;19.30;6.47;;;11.80;99.90;;;;;;4936488;29;20493;-80
2023/11/15 10:47:02;;;;;;;9.10;5.50;;;11.70;99.90;;;;;;4935820;29;20497;-80
2023/11/15 10:49:36;;;;;;;14.40;6.10;;;11.40;99.90;;;;;;4935520;29;20497;-80
2023/11/15 10:52:04;;;;;;;15.00;6.83;;;11.40;99.90;;;;;;4936068;29;20475;-80
2023/11/15 10:54:32;;;;;;;11.77;6.20;;;11.20;99.90;;;;;;4945609;29;20901;-80
2023/11/15 10:57:02;;;;;;;14.10;5.53;;;11.20;99.90;;;;;;4954743;29;20507;-81
2023/11/15 10:59:33;;;;;;;12.40;6.63;;;11.30;99.90;;;;;;4954726;29;20452;-81
2023/11/15 11:02:04;;;;;;;14.10;6.10;;;11.40;99.90;;;;;;4955466;29;20953;-80
2023/11/15 11:04:36;;;;;;;11.53;6.67;;;11.50;99.90;;;;;;4955616;29;20546;-80
2023/11/15 11:07:10;;;;;;;15.93;6.43;;;11.60;99.90;;;;;;4956496;29;20483;-79
2023/11/15 11:09:46;;;;;;;12.40;6.07;;;11.60;99.90;;;;;;4955332;28;20587;-81
2023/11/15 11:12:18;;;;;;;11.93;5.23;;;11.50;99.90;;;;;;4960523;29;20467;-81
2023/11/15 11:14:48;;;;;;;16.27;6.33;;;11.50;99.90;;;;;;4960761;29;20535;-81
2023/11/15 11:17:32;;;;;;;9.90;5.83;;;11.60;99.90;;;;;;4961397;29;20893;-81
2023/11/15 11:20:00;;;;;;;8.33;5.43;;;11.60;99.90;;;;;;4960180;29;20453;-80
2023/11/15 11:22:27;;;;;;;19.00;5.73;;;11.60;99.90;;;;;;4960951;29;20459;-80
2023/11/15 11:25:22;;;;;;;12.33;5.57;;;11.60;99.90;;;;;;4961547;29;20815;-81
2023/11/15 11:27:56;;;;;;;11.00;4.90;;;11.70;99.90;;;;;;4956782;29;20457;-81
2023/11/15 11:30:27;;;;;;;15.20;6.40;;;11.70;99.90;;;;;;4941313;29;21084;-80
2023/11/15 11:33:13;;;;;;;16.73;4.90;;;11.60;99.90;;;;;;4945552;29;20497;-80
2023/11/15 11:35:41;;;;;;;8.47;5.00;;;11.70;99.90;;;;;;4944104;29;20481;-81
2023/11/15 11:38:12;;;;;;;12.57;5.33;;;11.80;99.90;;;;;;4941495;29;20563;-81
2023/11/15 11:40:40;;;;;;;9.27;4.40;;;12.00;99.90;;;;;;4945931;29;20463;-79
2023/11/15 11:43:22;;;;;;;11.53;4.50;;;12.00;99.90;;;;;;4950864;29;20538;-80
2023/11/15 11:45:53;;;;;;;10.93;4.80;;;12.00;99.90;;;;;;4962759;29;20874;-79
2023/11/15 11:48:25;;;;;;;7.80;5.10;;;11.90;99.90;;;;;;4968915;29;20456;-81
2023/11/15 11:50:58;;;;;;;6.97;3.50;;;12.00;99.90;;;;;;4970020;29;20496;-79
2023/11/15 11:53:25;;;;;;;12.40;5.20;;;12.30;99.90;;;;;;4969705;29;20453;-81
2023/11/15 11:55:54;;;;;;;9.23;3.97;;;12.50;99.90;;;;;;4966044;29;20574;-82
2023/11/15 11:58:24;;;;;;;10.20;3.47;;;12.50;99.90;;;;;;4962637;29;20490;-82
2023/11/15 12:00:51;;;;;;;10.53;3.50;;;12.50;99.90;;;;;;4954299;29;20452;-81
2023/11/15 12:03:18;;;;;;;9.97;4.07;;;12.50;99.90;;;;;;4963114;29;20472;-82
2023/11/15 12:05:47;;;;;;;6.93;4.30;;;12.70;99.90;;;;;;4959910;29;20842;-82
2023/11/15 12:08:15;;;;;;;11.07;3.50;;;13.20;99.90;;;;;;4953554;29;20467;-80
2023/11/15 12:10:44;;;;;;;8.77;3.80;;;13.60;99.90;;;;;;4954005;29;20488;-82
2023/11/15 12:13:10;;;;;;;8.93;3.50;;;14.00;99.90;;;;;;4961775;29;20458;-82
2023/11/15 12:15:39;;;;;;;7.60;3.40;;;13.90;99.90;;;;;;4959530;28;20489;-81
2023/11/15 12:18:07;;;;;;;7.33;2.60;;;13.90;99.90;;;;;;4960799;29;20491;-81
2023/11/15 12:20:36;;;;;;;9.40;3.50;;;13.70;99.90;;;;;;4960947;28;20454;-82
2023/11/15 12:23:06;;;;;;;6.00;2.80;;;13.50;99.90;;;;;;4960035;29;20459;-82
2023/11/15 12:25:33;;;;;;;9.93;3.27;;;13.30;99.90;;;;;;4959869;29;20478;-80
2023/11/15 12:28:01;;;;;;;10.97;3.60;;;13.00;99.90;;;;;;4959495;29;20454;-82
2023/11/15 12:30:32;;;;;;;7.43;3.33;;;12.90;99.90;;;;;;4959605;29;20502;-82
2023/11/15 12:33:02;;;;;;;9.93;4.43;;;12.70;99.90;;;;;;4960405;29;20510;-82
2023/11/15 12:35:34;;;;;;;10.00;4.10;;;12.60;99.90;;;;;;4961890;29;20482;-82
2023/11/15 12:38:05;;;;;;;8.87;3.33;;;12.50;99.90;;;;;;4960046;29;20472;-79
2023/11/15 12:40:36;;;;;;;13.97;4.43;;;12.40;99.90;;;;;;4959315;29;20446;-81
2023/11/15 12:43:14;;;;;;;8.67;2.80;;;12.30;99.90;;;;;;4959308;29;20558;-81